sensor_id;sensor_type;location;lat;lon;timestamp;temperature;humidity
14008;DHT22;61651;45.508;12.232;2022-12-18T00:01:34;8.40;99.90
14008;DHT22;61651;45.508;12.232;2022-12-18T00:04:37;8.50;99.90
14008;DHT22;61651;45.508;12.232;2022-12-18T00:07:40;8.50;99.90
14008;DHT22;61651;45.508;12.232;2022-12-18T00:10:42;8.50;99.90
14008;DHT22;61651;45.508;12.232;2022-12-18T00:13:44;8.50;99.90
14008;DHT22;61651;45.508;12.232;2022-12-18T00:16:46;8.40;99.90
14008;DHT22;61651;45.508;12.232;2022-12-18T00:19:48;8.30;99.90
14008;DHT22;61651;45.508;12.232;2022-12-18T00:22:52;8.30;99.90
14008;DHT22;61651;45.508;12.232;2022-12-18T00:25:54;8.30;99.90
14008;DHT22;61651;45.508;12.232;2022-12-18T00:28:58;8.30;99.90
14008;DHT22;61651;45.508;12.232;2022-12-18T00:32:00;8.20;99.90
14008;DHT22;61651;45.508;12.232;2022-12-18T00:35:02;8.20;99.90
14008;DHT22;61651;45.508;12.232;2022-12-18T00:38:06;8.20;99.90
14008;DHT22;61651;45.508;12.232;2022-12-18T00:41:09;8.20;99.90
14008;DHT22;61651;45.508;12.232;2022-12-18T00:44:12;8.30;99.90
14008;DHT22;61651;45.508;12.232;2022-12-18T00:47:14;8.30;99.90
14008;DHT22;61651;45.508;12.232;2022-12-18T00:50:16;8.30;99.90
14008;DHT22;61651;45.508;12.232;2022-12-18T00:53:19;8.20;99.90
14008;DHT22;61651;45.508;12.232;2022-12-18T00:56:21;8.20;99.90
14008;DHT22;61651;45.508;12.232;2022-12-18T00:59:24;8.20;99.90
14008;DHT22;61651;45.508;12.232;2022-12-18T01:02:25;8.20;99.90
14008;DHT22;61651;45.508;12.232;2022-12-18T01:05:28;8.10;99.90
14008;DHT22;61651;45.508;12.232;2022-12-18T01:08:31;8.10;99.90
14008;DHT22;61651;45.508;12.232;2022-12-18T01:11:33;8.00;99.90
14008;DHT22;61651;45.508;12.232;2022-12-18T01:14:36;8.10;99.90
14008;DHT22;61651;45.508;12.232;2022-12-18T01:17:38;8.20;99.90
14008;DHT22;61651;45.508;12.232;2022-12-18T01:20:40;8.20;99.90
14008;DHT22;61651;45.508;12.232;2022-12-18T01:23:45;8.30;99.90
14008;DHT22;61651;45.508;12.232;2022-12-18T01:26:47;8.30;99.90
14008;DHT22;61651;45.508;12.232;2022-12-18T01:29:49;8.30;99.90
14008;DHT22;61651;45.508;12.232;2022-12-18T01:32:51;8.30;99.90
14008;DHT22;61651;45.508;12.232;2022-12-18T01:35:53;8.30;99.90
14008;DHT22;61651;45.508;12.232;2022-12-18T01:38:58;8.30;99.90
14008;DHT22;61651;45.508;12.232;2022-12-18T01:42:02;8.30;99.90
14008;DHT22;61651;45.508;12.232;2022-12-18T01:45:24;8.20;99.90
14008;DHT22;61651;45.508;12.232;2022-12-18T01:48:26;8.20;99.90
14008;DHT22;61651;45.508;12.232;2022-12-18T01:51:29;8.30;99.90
14008;DHT22;61651;45.508;12.232;2022-12-18T01:54:33;8.20;99.90
14008;DHT22;61651;45.508;12.232;2022-12-18T01:57:35;8.20;99.90
14008;DHT22;61651;45.508;12.232;2022-12-18T02:00:37;8.20;99.90
14008;DHT22;61651;45.508;12.232;2022-12-18T02:03:41;8.20;99.90
14008;DHT22;61651;45.508;12.232;2022-12-18T02:06:44;8.20;99.90
14008;DHT22;61651;45.508;12.232;2022-12-18T02:09:51;8.10;99.90
14008;DHT22;61651;45.508;12.232;2022-12-18T02:13:01;8.10;99.90
14008;DHT22;61651;45.508;12.232;2022-12-18T02:16:09;7.90;99.90
14008;DHT22;61651;45.508;12.232;2022-12-18T02:19:26;8.00;99.90
14008;DHT22;61651;45.508;12.232;2022-12-18T02:22:36;7.90;99.90
14008;DHT22;61651;45.508;12.232;2022-12-18T02:26:00;7.70;99.90
14008;DHT22;61651;45.508;12.232;2022-12-18T02:29:06;7.70;99.90
14008;DHT22;61651;45.508;12.232;2022-12-18T02:32:14;7.70;99.90
14008;DHT22;61651;45.508;12.232;2022-12-18T02:35:19;7.70;99.90
14008;DHT22;61651;45.508;12.232;2022-12-18T02:38:25;7.70;99.90
14008;DHT22;61651;45.508;12.232;2022-12-18T02:41:30;7.70;99.90
14008;DHT22;61651;45.508;12.232;2022-12-18T02:44:33;7.70;99.90
14008;DHT22;61651;45.508;12.232;2022-12-18T02:47:38;7.70;99.90
14008;DHT22;61651;45.508;12.232;2022-12-18T02:50:44;7.70;99.90
14008;DHT22;61651;45.508;12.232;2022-12-18T02:53:51;7.70;99.90
14008;DHT22;61651;45.508;12.232;2022-12-18T02:56:58;7.70;99.90
14008;DHT22;61651;45.508;12.232;2022-12-18T03:00:06;7.60;99.90
14008;DHT22;61651;45.508;12.232;2022-12-18T03:03:13;7.60;99.90
14008;DHT22;61651;45.508;12.232;2022-12-18T03:06:23;7.60;99.90
14008;DHT22;61651;45.508;12.232;2022-12-18T03:09:29;7.50;99.90
14008;DHT22;61651;45.508;12.232;2022-12-18T03:12:37;7.50;99.90
14008;DHT22;61651;45.508;12.232;2022-12-18T03:15:45;7.40;99.90
14008;DHT22;61651;45.508;12.232;2022-12-18T03:18:50;7.30;99.90
14008;DHT22;61651;45.508;12.232;2022-12-18T03:21:55;7.20;99.90
14008;DHT22;61651;45.508;12.232;2022-12-18T03:24:59;7.20;99.90
14008;DHT22;61651;45.508;12.232;2022-12-18T03:28:07;7.30;99.90
14008;DHT22;61651;45.508;12.232;2022-12-18T03:31:12;7.30;99.90
14008;DHT22;61651;45.508;12.232;2022-12-18T03:34:19;7.40;99.90
14008;DHT22;61651;45.508;12.232;2022-12-18T03:37:23;7.40;99.90
14008;DHT22;61651;45.508;12.232;2022-12-18T03:40:29;7.40;99.90
14008;DHT22;61651;45.508;12.232;2022-12-18T03:43:41;7.30;99.90
14008;DHT22;61651;45.508;12.232;2022-12-18T03:46:49;7.30;99.90
14008;DHT22;61651;45.508;12.232;2022-12-18T03:49:59;7.20;99.90
14008;DHT22;61651;45.508;12.232;2022-12-18T03:53:12;7.20;99.90
14008;DHT22;61651;45.508;12.232;2022-12-18T03:56:16;7.20;99.90
14008;DHT22;61651;45.508;12.232;2022-12-18T03:59:22;7.20;99.90
14008;DHT22;61651;45.508;12.232;2022-12-18T04:02:25;7.30;99.90
14008;DHT22;61651;45.508;12.232;2022-12-18T04:05:30;7.30;99.90
14008;DHT22;61651;45.508;12.232;2022-12-18T04:08:33;7.30;99.90
14008;DHT22;61651;45.508;12.232;2022-12-18T04:11:36;7.30;99.90
14008;DHT22;61651;45.508;12.232;2022-12-18T04:14:39;7.30;99.90
14008;DHT22;61651;45.508;12.232;2022-12-18T04:17:47;7.30;99.90
14008;DHT22;61651;45.508;12.232;2022-12-18T04:20:49;7.30;99.90
14008;DHT22;61651;45.508;12.232;2022-12-18T04:23:51;7.30;99.90
14008;DHT22;61651;45.508;12.232;2022-12-18T04:26:54;7.20;99.90
14008;DHT22;61651;45.508;12.232;2022-12-18T04:29:57;7.10;99.90
14008;DHT22;61651;45.508;12.232;2022-12-18T04:32:59;7.00;99.90
14008;DHT22;61651;45.508;12.232;2022-12-18T04:36:01;6.90;99.90
14008;DHT22;61651;45.508;12.232;2022-12-18T04:39:03;7.00;99.90
14008;DHT22;61651;45.508;12.232;2022-12-18T04:42:05;7.00;99.90
14008;DHT22;61651;45.508;12.232;2022-12-18T04:45:09;7.00;99.90
14008;DHT22;61651;45.508;12.232;2022-12-18T04:48:11;7.00;99.90
14008;DHT22;61651;45.508;12.232;2022-12-18T04:51:14;7.10;99.90
14008;DHT22;61651;45.508;12.232;2022-12-18T04:54:16;7.00;99.90
14008;DHT22;61651;45.508;12.232;2022-12-18T04:57:18;6.90;99.90
14008;DHT22;61651;45.508;12.232;2022-12-18T05:00:22;6.90;99.90
14008;DHT22;61651;45.508;12.232;2022-12-18T05:03:24;6.90;99.90
14008;DHT22;61651;45.508;12.232;2022-12-18T05:06:26;6.90;99.90
14008;DHT22;61651;45.508;12.232;2022-12-18T05:09:28;6.80;99.90
14008;DHT22;61651;45.508;12.232;2022-12-18T05:12:31;6.90;99.90
14008;DHT22;61651;45.508;12.232;2022-12-18T05:15:34;6.80;99.90
14008;DHT22;61651;45.508;12.232;2022-12-18T05:18:37;6.80;99.90
14008;DHT22;61651;45.508;12.232;2022-12-18T05:21:39;6.70;99.90
14008;DHT22;61651;45.508;12.232;2022-12-18T05:24:41;6.60;99.90
14008;DHT22;61651;45.508;12.232;2022-12-18T05:27:43;6.70;99.90
14008;DHT22;61651;45.508;12.232;2022-12-18T05:30:49;6.70;99.90
14008;DHT22;61651;45.508;12.232;2022-12-18T05:33:51;6.70;99.90
14008;DHT22;61651;45.508;12.232;2022-12-18T05:36:54;6.80;99.90
14008;DHT22;61651;45.508;12.232;2022-12-18T05:39:56;6.90;99.90
14008;DHT22;61651;45.508;12.232;2022-12-18T05:42:58;6.90;99.90
14008;DHT22;61651;45.508;12.232;2022-12-18T05:46:05;6.90;99.90
14008;DHT22;61651;45.508;12.232;2022-12-18T05:49:07;7.00;99.90
14008;DHT22;61651;45.508;12.232;2022-12-18T05:52:09;6.90;99.90
14008;DHT22;61651;45.508;12.232;2022-12-18T05:55:11;6.80;99.90
14008;DHT22;61651;45.508;12.232;2022-12-18T05:58:14;6.70;99.90
14008;DHT22;61651;45.508;12.232;2022-12-18T06:01:20;6.80;99.90
14008;DHT22;61651;45.508;12.232;2022-12-18T06:04:22;6.80;99.90
14008;DHT22;61651;45.508;12.232;2022-12-18T06:07:24;6.90;99.90
14008;DHT22;61651;45.508;12.232;2022-12-18T06:10:26;6.80;99.90
14008;DHT22;61651;45.508;12.232;2022-12-18T06:13:28;6.80;99.90
14008;DHT22;61651;45.508;12.232;2022-12-18T06:16:32;6.70;99.90
14008;DHT22;61651;45.508;12.232;2022-12-18T06:19:34;6.70;99.90
14008;DHT22;61651;45.508;12.232;2022-12-18T06:22:36;6.70;99.90
14008;DHT22;61651;45.508;12.232;2022-12-18T06:25:39;6.70;99.90
14008;DHT22;61651;45.508;12.232;2022-12-18T06:28:41;6.80;99.90
14008;DHT22;61651;45.508;12.232;2022-12-18T06:31:44;6.70;99.90
14008;DHT22;61651;45.508;12.232;2022-12-18T06:34:46;6.70;99.90
14008;DHT22;61651;45.508;12.232;2022-12-18T06:37:48;6.60;99.90
14008;DHT22;61651;45.508;12.232;2022-12-18T06:40:50;6.60;99.90
14008;DHT22;61651;45.508;12.232;2022-12-18T06:43:52;6.50;99.90
14008;DHT22;61651;45.508;12.232;2022-12-18T06:46:56;6.60;99.90
14008;DHT22;61651;45.508;12.232;2022-12-18T06:49:58;6.60;99.90
14008;DHT22;61651;45.508;12.232;2022-12-18T06:53:00;6.60;99.90
14008;DHT22;61651;45.508;12.232;2022-12-18T06:56:03;6.60;99.90
14008;DHT22;61651;45.508;12.232;2022-12-18T06:59:05;6.50;99.90
14008;DHT22;61651;45.508;12.232;2022-12-18T07:02:11;6.40;99.90
14008;DHT22;61651;45.508;12.232;2022-12-18T07:05:14;6.40;99.90
14008;DHT22;61651;45.508;12.232;2022-12-18T07:08:16;6.40;99.90
14008;DHT22;61651;45.508;12.232;2022-12-18T07:11:18;6.50;99.90
14008;DHT22;61651;45.508;12.232;2022-12-18T07:14:21;6.50;99.90
14008;DHT22;61651;45.508;12.232;2022-12-18T07:17:24;6.60;99.90
14008;DHT22;61651;45.508;12.232;2022-12-18T07:20:26;6.60;99.90
14008;DHT22;61651;45.508;12.232;2022-12-18T07:23:28;6.60;99.90
14008;DHT22;61651;45.508;12.232;2022-12-18T07:26:30;6.70;99.90
14008;DHT22;61651;45.508;12.232;2022-12-18T07:29:32;6.70;99.90
14008;DHT22;61651;45.508;12.232;2022-12-18T07:32:35;6.70;99.90
14008;DHT22;61651;45.508;12.232;2022-12-18T07:35:37;6.70;99.90
14008;DHT22;61651;45.508;12.232;2022-12-18T07:38:39;6.80;99.90
14008;DHT22;61651;45.508;12.232;2022-12-18T07:41:41;6.80;99.90
14008;DHT22;61651;45.508;12.232;2022-12-18T07:44:46;6.80;99.90
14008;DHT22;61651;45.508;12.232;2022-12-18T07:47:50;6.90;99.90
14008;DHT22;61651;45.508;12.232;2022-12-18T07:50:58;7.00;99.90
14008;DHT22;61651;45.508;12.232;2022-12-18T07:54:00;7.00;99.90
14008;DHT22;61651;45.508;12.232;2022-12-18T07:57:02;7.10;99.90
14008;DHT22;61651;45.508;12.232;2022-12-18T08:00:05;7.10;99.90
14008;DHT22;61651;45.508;12.232;2022-12-18T08:03:08;7.20;99.90
14008;DHT22;61651;45.508;12.232;2022-12-18T08:06:19;7.30;99.90
14008;DHT22;61651;45.508;12.232;2022-12-18T08:09:21;7.40;99.90
14008;DHT22;61651;45.508;12.232;2022-12-18T08:12:23;7.40;99.90
14008;DHT22;61651;45.508;12.232;2022-12-18T08:15:25;7.40;99.90
14008;DHT22;61651;45.508;12.232;2022-12-18T08:18:29;7.50;99.90
14008;DHT22;61651;45.508;12.232;2022-12-18T08:21:31;7.50;99.90
14008;DHT22;61651;45.508;12.232;2022-12-18T08:24:33;7.60;99.90
14008;DHT22;61651;45.508;12.232;2022-12-18T08:27:35;7.70;99.90
14008;DHT22;61651;45.508;12.232;2022-12-18T08:30:38;7.70;99.90
14008;DHT22;61651;45.508;12.232;2022-12-18T08:33:41;7.80;99.90
14008;DHT22;61651;45.508;12.232;2022-12-18T08:36:43;7.90;99.90
14008;DHT22;61651;45.508;12.232;2022-12-18T08:39:45;8.00;99.90
14008;DHT22;61651;45.508;12.232;2022-12-18T08:42:47;8.00;99.90
14008;DHT22;61651;45.508;12.232;2022-12-18T08:46:06;8.10;99.90
14008;DHT22;61651;45.508;12.232;2022-12-18T08:49:10;8.20;99.90
14008;DHT22;61651;45.508;12.232;2022-12-18T08:52:12;8.20;99.90
14008;DHT22;61651;45.508;12.232;2022-12-18T08:55:14;8.20;99.90
14008;DHT22;61651;45.508;12.232;2022-12-18T08:58:16;8.30;99.90
14008;DHT22;61651;45.508;12.232;2022-12-18T09:01:19;8.40;99.90
14008;DHT22;61651;45.508;12.232;2022-12-18T09:04:22;8.50;99.90
14008;DHT22;61651;45.508;12.232;2022-12-18T09:07:24;8.60;99.90
14008;DHT22;61651;45.508;12.232;2022-12-18T09:10:26;8.60;99.90
14008;DHT22;61651;45.508;12.232;2022-12-18T09:13:28;8.70;99.90
14008;DHT22;61651;45.508;12.232;2022-12-18T09:16:37;8.70;99.90
14008;DHT22;61651;45.508;12.232;2022-12-18T09:19:40;8.70;99.90
14008;DHT22;61651;45.508;12.232;2022-12-18T09:22:42;8.80;99.90
14008;DHT22;61651;45.508;12.232;2022-12-18T09:25:44;8.90;99.90
14008;DHT22;61651;45.508;12.232;2022-12-18T09:28:46;9.00;99.90
14008;DHT22;61651;45.508;12.232;2022-12-18T09:31:49;9.10;99.90
14008;DHT22;61651;45.508;12.232;2022-12-18T09:34:53;9.20;99.90
14008;DHT22;61651;45.508;12.232;2022-12-18T09:37:55;9.30;99.90
14008;DHT22;61651;45.508;12.232;2022-12-18T09:41:00;9.40;99.90
14008;DHT22;61651;45.508;12.232;2022-12-18T09:44:12;9.40;99.90
14008;DHT22;61651;45.508;12.232;2022-12-18T09:47:17;9.50;99.90
14008;DHT22;61651;45.508;12.232;2022-12-18T09:50:29;9.50;99.90
14008;DHT22;61651;45.508;12.232;2022-12-18T09:53:35;9.60;99.90
14008;DHT22;61651;45.508;12.232;2022-12-18T09:56:41;9.50;99.90
14008;DHT22;61651;45.508;12.232;2022-12-18T09:59:47;9.60;99.90
14008;DHT22;61651;45.508;12.232;2022-12-18T10:02:53;9.60;99.90
14008;DHT22;61651;45.508;12.232;2022-12-18T10:06:07;9.70;99.90
14008;DHT22;61651;45.508;12.232;2022-12-18T10:09:20;9.80;99.90
14008;DHT22;61651;45.508;12.232;2022-12-18T10:12:30;9.80;99.90
14008;DHT22;61651;45.508;12.232;2022-12-18T10:15:39;9.90;99.90
14008;DHT22;61651;45.508;12.232;2022-12-18T10:19:01;10.00;99.90
14008;DHT22;61651;45.508;12.232;2022-12-18T10:22:16;10.10;99.90
14008;DHT22;61651;45.508;12.232;2022-12-18T10:25:24;10.10;99.90
14008;DHT22;61651;45.508;12.232;2022-12-18T10:28:27;10.10;99.90
14008;DHT22;61651;45.508;12.232;2022-12-18T10:31:31;10.20;99.90
14008;DHT22;61651;45.508;12.232;2022-12-18T10:34:33;10.30;99.90
14008;DHT22;61651;45.508;12.232;2022-12-18T10:37:36;10.40;99.90
14008;DHT22;61651;45.508;12.232;2022-12-18T10:41:00;10.50;99.90
14008;DHT22;61651;45.508;12.232;2022-12-18T10:44:16;10.50;99.90
14008;DHT22;61651;45.508;12.232;2022-12-18T10:47:19;10.60;99.90
14008;DHT22;61651;45.508;12.232;2022-12-18T10:50:31;10.70;99.90
14008;DHT22;61651;45.508;12.232;2022-12-18T10:53:36;10.80;99.90
14008;DHT22;61651;45.508;12.232;2022-12-18T10:56:38;10.90;99.90
14008;DHT22;61651;45.508;12.232;2022-12-18T10:59:51;10.90;99.90
14008;DHT22;61651;45.508;12.232;2022-12-18T11:02:53;11.00;99.90
14008;DHT22;61651;45.508;12.232;2022-12-18T11:06:02;11.00;99.90
14008;DHT22;61651;45.508;12.232;2022-12-18T11:09:19;11.10;99.90
14008;DHT22;61651;45.508;12.232;2022-12-18T11:12:22;11.20;99.90
14008;DHT22;61651;45.508;12.232;2022-12-18T11:15:28;11.40;99.90
14008;DHT22;61651;45.508;12.232;2022-12-18T11:18:33;11.40;99.90
14008;DHT22;61651;45.508;12.232;2022-12-18T11:21:39;11.40;99.90
14008;DHT22;61651;45.508;12.232;2022-12-18T11:24:49;11.50;99.90
14008;DHT22;61651;45.508;12.232;2022-12-18T11:27:55;11.60;99.90
14008;DHT22;61651;45.508;12.232;2022-12-18T11:31:12;11.60;99.90
14008;DHT22;61651;45.508;12.232;2022-12-18T11:34:22;11.80;99.90
14008;DHT22;61651;45.508;12.232;2022-12-18T11:37:28;11.80;99.90
14008;DHT22;61651;45.508;12.232;2022-12-18T11:40:35;11.80;99.90
14008;DHT22;61651;45.508;12.232;2022-12-18T11:43:41;11.90;99.90
14008;DHT22;61651;45.508;12.232;2022-12-18T11:46:49;11.90;99.90
14008;DHT22;61651;45.508;12.232;2022-12-18T11:49:55;12.00;99.90
14008;DHT22;61651;45.508;12.232;2022-12-18T11:53:01;12.10;99.90
14008;DHT22;61651;45.508;12.232;2022-12-18T11:56:19;12.20;99.90
14008;DHT22;61651;45.508;12.232;2022-12-18T11:59:34;12.30;99.90
14008;DHT22;61651;45.508;12.232;2022-12-18T12:03:04;12.30;99.90
14008;DHT22;61651;45.508;12.232;2022-12-18T12:06:17;12.40;99.90
14008;DHT22;61651;45.508;12.232;2022-12-18T12:09:27;12.50;99.90
14008;DHT22;61651;45.508;12.232;2022-12-18T12:12:43;12.70;99.90
14008;DHT22;61651;45.508;12.232;2022-12-18T12:16:03;12.80;99.90
14008;DHT22;61651;45.508;12.232;2022-12-18T12:19:21;13.00;99.90
14008;DHT22;61651;45.508;12.232;2022-12-18T12:22:35;13.00;99.90
14008;DHT22;61651;45.508;12.232;2022-12-18T12:25:46;13.10;99.90
14008;DHT22;61651;45.508;12.232;2022-12-18T12:29:01;13.20;99.90
14008;DHT22;61651;45.508;12.232;2022-12-18T12:32:17;13.20;99.90
14008;DHT22;61651;45.508;12.232;2022-12-18T12:35:38;13.40;99.90
14008;DHT22;61651;45.508;12.232;2022-12-18T12:38:47;13.30;99.90
14008;DHT22;61651;45.508;12.232;2022-12-18T12:41:51;13.40;99.90
14008;DHT22;61651;45.508;12.232;2022-12-18T12:45:18;13.50;99.90
14008;DHT22;61651;45.508;12.232;2022-12-18T12:48:34;13.60;99.90
14008;DHT22;61651;45.508;12.232;2022-12-18T12:51:39;13.60;99.90
14008;DHT22;61651;45.508;12.232;2022-12-18T12:54:42;13.70;99.90
14008;DHT22;61651;45.508;12.232;2022-12-18T12:57:48;13.80;99.90
14008;DHT22;61651;45.508;12.232;2022-12-18T13:01:04;14.00;99.90
14008;DHT22;61651;45.508;12.232;2022-12-18T13:04:18;14.10;99.90
14008;DHT22;61651;45.508;12.232;2022-12-18T13:07:26;14.20;99.90
14008;DHT22;61651;45.508;12.232;2022-12-18T13:10:34;14.30;99.90
14008;DHT22;61651;45.508;12.232;2022-12-18T13:13:48;14.40;99.90
14008;DHT22;61651;45.508;12.232;2022-12-18T13:16:50;14.60;99.90
14008;DHT22;61651;45.508;12.232;2022-12-18T13:20:03;14.80;99.90
14008;DHT22;61651;45.508;12.232;2022-12-18T13:23:30;14.90;99.90
14008;DHT22;61651;45.508;12.232;2022-12-18T13:26:33;15.10;99.90
14008;DHT22;61651;45.508;12.232;2022-12-18T13:29:44;15.20;99.90
14008;DHT22;61651;45.508;12.232;2022-12-18T13:32:47;15.40;99.90
14008;DHT22;61651;45.508;12.232;2022-12-18T13:36:00;15.50;99.90
14008;DHT22;61651;45.508;12.232;2022-12-18T13:42:39;15.80;99.90
14008;DHT22;61651;45.508;12.232;2022-12-18T13:46:01;15.90;99.90
14008;DHT22;61651;45.508;12.232;2022-12-18T13:49:22;16.00;99.90
14008;DHT22;61651;45.508;12.232;2022-12-18T13:52:26;16.20;99.90
14008;DHT22;61651;45.508;12.232;2022-12-18T13:55:29;16.20;99.90
14008;DHT22;61651;45.508;12.232;2022-12-18T13:58:31;16.40;99.90
14008;DHT22;61651;45.508;12.232;2022-12-18T14:01:33;16.40;99.90
14008;DHT22;61651;45.508;12.232;2022-12-18T14:04:37;16.40;99.90
14008;DHT22;61651;45.508;12.232;2022-12-18T14:07:39;16.40;99.90
14008;DHT22;61651;45.508;12.232;2022-12-18T14:10:42;16.40;99.90
14008;DHT22;61651;45.508;12.232;2022-12-18T14:13:46;16.40;99.90
14008;DHT22;61651;45.508;12.232;2022-12-18T14:16:49;16.40;99.90
14008;DHT22;61651;45.508;12.232;2022-12-18T14:19:52;16.30;99.90
14008;DHT22;61651;45.508;12.232;2022-12-18T14:22:54;16.30;99.90
14008;DHT22;61651;45.508;12.232;2022-12-18T14:25:58;16.20;99.90
14008;DHT22;61651;45.508;12.232;2022-12-18T14:29:17;16.20;99.90
14008;DHT22;61651;45.508;12.232;2022-12-18T14:32:20;16.20;99.90
14008;DHT22;61651;45.508;12.232;2022-12-18T14:35:24;16.10;99.90
14008;DHT22;61651;45.508;12.232;2022-12-18T14:38:28;16.10;99.90
14008;DHT22;61651;45.508;12.232;2022-12-18T14:41:30;16.00;99.90
14008;DHT22;61651;45.508;12.232;2022-12-18T14:44:33;15.80;99.90
14008;DHT22;61651;45.508;12.232;2022-12-18T14:47:35;15.80;99.90
14008;DHT22;61651;45.508;12.232;2022-12-18T14:50:39;15.70;99.90
14008;DHT22;61651;45.508;12.232;2022-12-18T14:53:43;15.50;99.90
14008;DHT22;61651;45.508;12.232;2022-12-18T14:56:47;15.30;99.90
14008;DHT22;61651;45.508;12.232;2022-12-18T14:59:50;15.10;99.90
14008;DHT22;61651;45.508;12.232;2022-12-18T15:02:54;14.80;99.90
14008;DHT22;61651;45.508;12.232;2022-12-18T15:06:15;14.50;99.90
14008;DHT22;61651;45.508;12.232;2022-12-18T15:09:22;14.20;99.90
14008;DHT22;61651;45.508;12.232;2022-12-18T15:12:32;14.00;99.90
14008;DHT22;61651;45.508;12.232;2022-12-18T15:15:48;13.80;99.90
14008;DHT22;61651;45.508;12.232;2022-12-18T15:18:50;13.50;99.90
14008;DHT22;61651;45.508;12.232;2022-12-18T15:21:53;13.30;99.90
14008;DHT22;61651;45.508;12.232;2022-12-18T15:24:56;13.10;99.90
14008;DHT22;61651;45.508;12.232;2022-12-18T15:27:59;13.00;99.90
14008;DHT22;61651;45.508;12.232;2022-12-18T15:31:03;12.80;99.90
14008;DHT22;61651;45.508;12.232;2022-12-18T15:34:14;12.60;99.90
14008;DHT22;61651;45.508;12.232;2022-12-18T15:37:22;12.50;99.90
14008;DHT22;61651;45.508;12.232;2022-12-18T15:40:24;12.30;99.90
14008;DHT22;61651;45.508;12.232;2022-12-18T15:43:26;12.10;99.90
14008;DHT22;61651;45.508;12.232;2022-12-18T15:46:37;12.00;99.90
14008;DHT22;61651;45.508;12.232;2022-12-18T15:49:39;11.90;99.90
14008;DHT22;61651;45.508;12.232;2022-12-18T15:52:45;11.80;99.90
14008;DHT22;61651;45.508;12.232;2022-12-18T15:55:47;11.60;99.90
14008;DHT22;61651;45.508;12.232;2022-12-18T15:59:10;11.60;99.90
14008;DHT22;61651;45.508;12.232;2022-12-18T16:02:16;11.50;99.90
14008;DHT22;61651;45.508;12.232;2022-12-18T16:05:20;11.40;99.90
14008;DHT22;61651;45.508;12.232;2022-12-18T16:08:23;11.20;99.90
14008;DHT22;61651;45.508;12.232;2022-12-18T16:11:27;11.20;99.90
14008;DHT22;61651;45.508;12.232;2022-12-18T16:14:42;11.10;99.90
14008;DHT22;61651;45.508;12.232;2022-12-18T16:17:45;11.00;99.90
14008;DHT22;61651;45.508;12.232;2022-12-18T16:20:47;10.90;99.90
14008;DHT22;61651;45.508;12.232;2022-12-18T16:23:50;10.80;99.90
14008;DHT22;61651;45.508;12.232;2022-12-18T16:26:53;10.70;99.90
14008;DHT22;61651;45.508;12.232;2022-12-18T16:29:55;10.60;99.90
14008;DHT22;61651;45.508;12.232;2022-12-18T16:32:58;10.50;99.90
14008;DHT22;61651;45.508;12.232;2022-12-18T16:36:00;10.40;99.90
14008;DHT22;61651;45.508;12.232;2022-12-18T16:39:03;10.40;99.90
14008;DHT22;61651;45.508;12.232;2022-12-18T16:42:08;10.30;99.90
14008;DHT22;61651;45.508;12.232;2022-12-18T16:45:14;10.30;99.90
14008;DHT22;61651;45.508;12.232;2022-12-18T16:48:17;10.20;99.90
14008;DHT22;61651;45.508;12.232;2022-12-18T16:51:19;10.10;99.90
14008;DHT22;61651;45.508;12.232;2022-12-18T16:54:22;10.00;99.90
14008;DHT22;61651;45.508;12.232;2022-12-18T16:57:24;10.00;99.90
14008;DHT22;61651;45.508;12.232;2022-12-18T17:00:26;9.90;99.90
14008;DHT22;61651;45.508;12.232;2022-12-18T17:03:28;9.80;99.90
14008;DHT22;61651;45.508;12.232;2022-12-18T17:06:31;9.70;99.90
14008;DHT22;61651;45.508;12.232;2022-12-18T17:09:36;9.60;99.90
14008;DHT22;61651;45.508;12.232;2022-12-18T17:12:38;9.60;99.90
14008;DHT22;61651;45.508;12.232;2022-12-18T17:15:40;9.60;99.90
14008;DHT22;61651;45.508;12.232;2022-12-18T17:18:42;9.60;99.90
14008;DHT22;61651;45.508;12.232;2022-12-18T17:21:48;9.50;99.90
14008;DHT22;61651;45.508;12.232;2022-12-18T17:24:53;9.40;99.90
14008;DHT22;61651;45.508;12.232;2022-12-18T17:27:55;9.40;99.90
14008;DHT22;61651;45.508;12.232;2022-12-18T17:30:57;9.30;99.90
14008;DHT22;61651;45.508;12.232;2022-12-18T17:34:00;9.30;99.90
14008;DHT22;61651;45.508;12.232;2022-12-18T17:37:02;9.30;99.90
14008;DHT22;61651;45.508;12.232;2022-12-18T17:40:08;9.20;99.90
14008;DHT22;61651;45.508;12.232;2022-12-18T17:43:10;9.20;99.90
14008;DHT22;61651;45.508;12.232;2022-12-18T17:46:13;9.20;99.90
14008;DHT22;61651;45.508;12.232;2022-12-18T17:49:15;9.10;99.90
14008;DHT22;61651;45.508;12.232;2022-12-18T17:52:17;9.10;99.90
14008;DHT22;61651;45.508;12.232;2022-12-18T17:55:21;9.00;99.90
14008;DHT22;61651;45.508;12.232;2022-12-18T17:58:23;9.00;99.90
14008;DHT22;61651;45.508;12.232;2022-12-18T18:01:26;9.00;99.90
14008;DHT22;61651;45.508;12.232;2022-12-18T18:04:28;8.90;99.90
14008;DHT22;61651;45.508;12.232;2022-12-18T18:07:30;8.90;99.90
14008;DHT22;61651;45.508;12.232;2022-12-18T18:10:36;8.80;99.90
14008;DHT22;61651;45.508;12.232;2022-12-18T18:13:38;8.80;99.90
14008;DHT22;61651;45.508;12.232;2022-12-18T18:16:58;8.80;99.90
14008;DHT22;61651;45.508;12.232;2022-12-18T18:20:00;8.80;99.90
14008;DHT22;61651;45.508;12.232;2022-12-18T18:23:02;8.70;99.90
14008;DHT22;61651;45.508;12.232;2022-12-18T18:26:07;8.70;99.90
14008;DHT22;61651;45.508;12.232;2022-12-18T18:29:12;8.60;99.90
14008;DHT22;61651;45.508;12.232;2022-12-18T18:32:15;8.60;99.90
14008;DHT22;61651;45.508;12.232;2022-12-18T18:35:18;8.60;99.90
14008;DHT22;61651;45.508;12.232;2022-12-18T18:38:20;8.50;99.90
14008;DHT22;61651;45.508;12.232;2022-12-18T18:41:24;8.50;99.90
14008;DHT22;61651;45.508;12.232;2022-12-18T18:44:26;8.50;99.90
14008;DHT22;61651;45.508;12.232;2022-12-18T18:47:28;8.40;99.90
14008;DHT22;61651;45.508;12.232;2022-12-18T18:50:30;8.40;99.90
14008;DHT22;61651;45.508;12.232;2022-12-18T18:53:35;8.30;99.90
14008;DHT22;61651;45.508;12.232;2022-12-18T18:56:38;8.20;99.90
14008;DHT22;61651;45.508;12.232;2022-12-18T18:59:41;8.20;99.90
14008;DHT22;61651;45.508;12.232;2022-12-18T19:02:43;8.20;99.90
14008;DHT22;61651;45.508;12.232;2022-12-18T19:05:49;8.20;99.90
14008;DHT22;61651;45.508;12.232;2022-12-18T19:08:52;8.10;99.90
14008;DHT22;61651;45.508;12.232;2022-12-18T19:11:56;8.10;99.90
14008;DHT22;61651;45.508;12.232;2022-12-18T19:15:15;8.10;99.90
14008;DHT22;61651;45.508;12.232;2022-12-18T19:18:18;8.10;99.90
14008;DHT22;61651;45.508;12.232;2022-12-18T19:21:20;8.10;99.90
14008;DHT22;61651;45.508;12.232;2022-12-18T19:24:22;8.00;99.90
14008;DHT22;61651;45.508;12.232;2022-12-18T19:27:26;8.00;99.90